Time;durP1;ratioP1;P1;durP2;ratioP2;P2;SDS_P1;SDS_P2;PMS_P1;PMS_P2;Temp;Humidity;BMP_temperature;BMP_pressure;BME280_temperature;BME280_humidity;BME280_pressure;Samples;Min_cycle;Max_cycle;Signal;HPM_P1;HPM_P2
2022/03/01 00:01:03;;;;;;;29.50;16.70;;;;;;;-4.35;80.19;98348.27;107547;1273;30487;-76
2022/03/01 00:03:34;;;;;;;24.80;15.20;;;;;;;-4.34;80.50;98355.41;107524;1275;43727;-74
2022/03/01 00:06:05;;;;;;;26.80;16.60;;;;;;;-4.33;80.52;98360.15;107509;1273;42087;-74
2022/03/01 00:08:36;;;;;;;24.10;15.20;;;;;;;-4.31;80.81;98356.65;107518;1274;35584;-74
2022/03/01 00:11:07;;;;;;;23.30;14.70;;;;;;;-4.27;80.91;98357.21;107532;1274;44934;-74
2022/03/01 00:13:38;;;;;;;28.30;17.40;;;;;;;-4.24;80.93;98359.59;107485;1274;35789;-74
2022/03/01 00:16:09;;;;;;;28.10;17.20;;;;;;;-4.21;80.89;98362.08;107478;1275;41237;-74
2022/03/01 00:18:40;;;;;;;32.30;17.90;;;;;;;-4.18;81.11;98361.88;107514;1274;31919;-74
2022/03/01 00:21:11;;;;;;;31.30;16.60;;;;;;;-4.12;81.27;98359.27;107521;1274;44400;-73
2022/03/01 00:23:43;;;;;;;30.40;17.60;;;;;;;-4.10;81.35;98360.08;107534;1274;36620;-74
2022/03/01 00:26:14;;;;;;;27.50;17.00;;;;;;;-4.07;81.36;98356.73;107471;1274;40543;-74
2022/03/01 00:28:45;;;;;;;29.40;18.00;;;;;;;-4.07;81.31;98359.46;107505;1274;44760;-74
2022/03/01 00:31:16;;;;;;;33.60;18.60;;;;;;;-4.09;81.30;98358.13;107488;1273;31270;-74
2022/03/01 00:33:47;;;;;;;32.50;18.10;;;;;;;-4.16;81.32;98352.70;107531;1274;35987;-74
2022/03/01 00:36:18;;;;;;;33.40;18.20;;;;;;;-4.19;81.36;98352.23;107480;1274;41429;-74
2022/03/01 00:38:49;;;;;;;30.90;19.00;;;;;;;-4.18;81.10;98352.39;107487;1274;41356;-74
2022/03/01 00:41:20;;;;;;;36.50;21.90;;;;;;;-4.21;81.20;98355.40;107492;1274;45553;-74
2022/03/01 00:43:50;;;;;;;45.80;25.10;;;;;;;-4.22;81.30;98356.82;107540;1274;54744;-74
2022/03/01 00:46:22;;;;;;;40.10;23.20;;;;;;;-4.28;81.27;98360.15;107583;1273;34534;-74
2022/03/01 00:48:54;;;;;;;48.80;25.40;;;;;;;-4.32;81.32;98356.41;107475;1274;60508;-74
2022/03/01 00:51:25;;;;;;;37.10;22.10;;;;;;;-4.34;81.40;98354.90;107535;1273;42053;-75
2022/03/01 00:53:57;;;;;;;52.00;23.60;;;;;;;-4.43;81.27;98351.53;107541;1274;34384;-74
2022/03/01 00:56:28;;;;;;;40.20;21.70;;;;;;;-4.49;81.71;98354.20;107404;1273;47366;-74
2022/03/01 00:58:59;;;;;;;44.50;24.60;;;;;;;-4.52;81.91;98353.95;107487;1274;47711;-74
2022/03/01 01:01:30;;;;;;;40.90;24.70;;;;;;;-4.50;82.21;98353.05;107450;1274;72127;-74
2022/03/01 01:04:01;;;;;;;44.50;26.00;;;;;;;-4.48;82.02;98350.27;107454;1274;86261;-74
2022/03/01 01:06:32;;;;;;;40.10;23.70;;;;;;;-4.45;82.24;98347.45;107464;1274;48808;-74
2022/03/01 01:09:03;;;;;;;40.50;21.80;;;;;;;-4.46;82.11;98340.01;107508;1273;40634;-74
2022/03/01 01:11:34;;;;;;;34.30;20.40;;;;;;;-4.56;82.24;98336.02;107446;1274;74260;-74
2022/03/01 01:14:05;;;;;;;29.70;20.10;;;;;;;-4.74;82.20;98332.38;107473;1274;41627;-74
2022/03/01 01:16:36;;;;;;;35.10;20.00;;;;;;;-4.82;82.05;98329.77;107460;1274;41927;-74
2022/03/01 01:19:07;;;;;;;35.80;18.40;;;;;;;-4.85;82.52;98336.05;107458;1275;43120;-74
2022/03/01 01:24:26;;;;;;;37.70;22.10;;;;;;;-4.77;83.29;98331.40;107539;1273;32866;-74
2022/03/01 01:26:57;;;;;;;36.10;22.60;;;;;;;-4.68;83.43;98333.89;107529;1274;44237;-74
2022/03/01 01:29:27;;;;;;;33.40;22.40;;;;;;;-4.62;83.49;98330.59;107473;1274;42025;-74
2022/03/01 01:31:58;;;;;;;38.90;23.40;;;;;;;-4.56;83.56;98331.19;107460;1273;41157;-74
2022/03/01 01:34:29;;;;;;;35.40;22.10;;;;;;;-4.53;83.43;98332.27;107540;1274;37691;-74
2022/03/01 01:37:00;;;;;;;36.30;20.70;;;;;;;-4.54;83.23;98334.10;107550;1274;36546;-74
2022/03/01 01:39:31;;;;;;;38.00;23.10;;;;;;;-4.56;83.06;98333.75;107493;1274;42189;-74
2022/03/01 01:42:02;;;;;;;39.70;22.00;;;;;;;-4.55;83.03;98332.33;107496;1274;46059;-74
2022/03/01 01:44:33;;;;;;;28.60;19.30;;;;;;;-4.57;82.93;98336.83;107553;1274;35689;-74
2022/03/01 01:47:07;;;;;;;37.20;22.70;;;;;;;-4.66;82.74;98336.58;107483;1274;30824;-74
2022/03/01 01:49:38;;;;;;;37.80;23.60;;;;;;;-4.69;82.98;98334.33;107506;1274;43493;-74
2022/03/01 01:52:10;;;;;;;37.90;22.30;;;;;;;-4.71;82.99;98337.58;107535;1274;42536;-74
2022/03/01 01:54:41;;;;;;;34.30;22.80;;;;;;;-4.71;82.93;98338.25;107539;1273;41392;-74
2022/03/01 01:57:20;;;;;;;41.30;21.60;;;;;;;-4.72;82.72;98337.91;107489;1274;46458;-74
2022/03/01 01:59:52;;;;;;;29.60;19.20;;;;;;;-4.80;82.50;98336.46;107521;1274;40485;-74
2022/03/01 02:02:27;;;;;;;30.40;19.60;;;;;;;-4.80;82.65;98337.88;107555;1274;29665;-74
2022/03/01 02:04:57;;;;;;;29.60;18.70;;;;;;;-4.81;82.86;98342.27;107572;1274;51192;-74
2022/03/01 02:07:28;;;;;;;34.60;20.00;;;;;;;-4.84;82.66;98341.36;107311;1274;269284;-74
2022/03/01 02:09:59;;;;;;;34.90;20.90;;;;;;;-4.94;82.49;98342.29;107576;1274;43057;-74
2022/03/01 02:12:30;;;;;;;31.40;20.40;;;;;;;-5.07;82.56;98345.00;107551;1275;42554;-74
2022/03/01 02:15:01;;;;;;;31.30;21.00;;;;;;;-5.16;82.47;98341.95;107552;1273;38943;-74
2022/03/01 02:17:32;;;;;;;37.10;22.10;;;;;;;-5.25;82.20;98345.23;107502;1273;58555;-74
2022/03/01 02:20:08;;;;;;;35.00;22.30;;;;;;;-5.32;82.49;98341.02;107498;1274;44666;-74
2022/03/01 02:22:39;;;;;;;49.50;26.00;;;;;;;-5.37;82.91;98338.85;107508;1274;47365;-74
2022/03/01 02:25:11;;;;;;;36.30;22.80;;;;;;;-5.39;83.17;98343.43;107480;1274;50595;-74
2022/03/01 02:27:42;;;;;;;35.30;20.60;;;;;;;-5.36;83.44;98343.60;107456;1274;45795;-74
2022/03/01 02:30:14;;;;;;;32.50;21.30;;;;;;;-5.33;83.46;98342.69;107490;1274;44073;-74
2022/03/01 02:32:45;;;;;;;35.60;20.60;;;;;;;-5.29;83.79;98337.66;107406;1274;53174;-74
2022/03/01 02:35:17;;;;;;;35.90;20.30;;;;;;;-5.26;83.77;98338.57;107463;1274;53944;-74
2022/03/01 02:37:48;;;;;;;30.50;20.00;;;;;;;-5.30;83.75;98340.86;107517;1274;39481;-74
2022/03/01 02:40:19;;;;;;;38.50;22.20;;;;;;;-5.44;83.41;98343.25;107429;1274;41893;-74
2022/03/01 02:42:51;;;;;;;35.70;21.90;;;;;;;-5.54;83.44;98343.23;107548;1274;44791;-75
2022/03/01 02:45:22;;;;;;;41.10;24.30;;;;;;;-5.52;83.80;98343.26;107588;1274;34960;-74
2022/03/01 02:47:53;;;;;;;39.40;23.70;;;;;;;-5.50;83.91;98339.14;107492;1274;42576;-74
2022/03/01 02:50:25;;;;;;;35.20;22.10;;;;;;;-5.47;83.85;98338.02;107495;1274;41641;-74
2022/03/01 02:52:56;;;;;;;31.50;19.60;;;;;;;-5.46;83.76;98337.57;107554;1273;36753;-74
2022/03/01 02:55:27;;;;;;;35.20;21.20;;;;;;;-5.51;83.69;98336.45;107481;1274;44377;-74
2022/03/01 02:57:58;;;;;;;34.90;22.00;;;;;;;-5.58;83.47;98338.61;107452;1273;42685;-74
2022/03/01 03:00:29;;;;;;;35.90;21.80;;;;;;;-5.58;83.65;98339.48;107508;1273;32990;-74
2022/03/01 03:03:00;;;;;;;29.80;18.90;;;;;;;-5.57;83.66;98336.79;107493;1273;52443;-74
2022/03/01 03:05:31;;;;;;;28.00;16.70;;;;;;;-5.64;83.31;98331.95;107481;1274;43856;-74
2022/03/01 03:08:02;;;;;;;31.60;20.30;;;;;;;-5.70;83.27;98328.33;107505;1274;33823;-74
2022/03/01 03:10:33;;;;;;;36.90;23.70;;;;;;;-5.70;83.77;98326.98;107487;1274;35159;-73
2022/03/01 03:13:04;;;;;;;32.40;21.00;;;;;;;-5.68;84.06;98330.67;107483;1273;44699;-75
2022/03/01 03:15:37;;;;;;;33.40;19.20;;;;;;;-5.67;84.20;98326.80;107472;1274;37091;-74
2022/03/01 03:18:09;;;;;;;31.30;19.70;;;;;;;-5.67;84.49;98327.16;107492;1273;29144;-74
2022/03/01 03:20:40;;;;;;;29.10;17.30;;;;;;;-5.65;84.44;98329.44;107440;1274;50279;-74
2022/03/01 03:23:11;;;;;;;29.30;17.60;;;;;;;-5.64;84.67;98328.83;107486;1274;48000;-74
2022/03/01 03:25:42;;;;;;;29.60;17.60;;;;;;;-5.65;84.57;98328.20;107459;1274;46051;-74
2022/03/01 03:28:13;;;;;;;28.70;17.20;;;;;;;-5.67;84.68;98326.15;107496;1274;54179;-74
2022/03/01 03:30:44;;;;;;;27.00;17.80;;;;;;;-5.69;84.60;98324.91;107437;1273;33484;-74
2022/03/01 03:33:15;;;;;;;27.30;18.50;;;;;;;-5.69;84.45;98326.45;107461;1273;45960;-74
2022/03/01 03:35:46;;;;;;;25.90;17.20;;;;;;;-5.69;84.45;98326.38;107507;1274;29930;-74
2022/03/01 03:38:17;;;;;;;26.60;17.50;;;;;;;-5.68;84.46;98327.05;107488;1274;48007;-73
2022/03/01 03:40:48;;;;;;;29.00;17.50;;;;;;;-5.64;84.42;98327.30;107495;1274;31968;-74
2022/03/01 03:43:19;;;;;;;25.40;16.20;;;;;;;-5.63;84.12;98325.27;107517;1274;44131;-74
2022/03/01 03:45:50;;;;;;;27.50;16.90;;;;;;;-5.69;84.01;98327.13;107537;1273;49997;-74
2022/03/01 03:48:21;;;;;;;25.80;15.40;;;;;;;-5.76;83.63;98324.93;107401;1274;56779;-74
2022/03/01 03:50:52;;;;;;;23.80;14.80;;;;;;;-5.87;83.49;98324.14;107510;1273;34008;-74
2022/03/01 03:53:23;;;;;;;22.30;13.70;;;;;;;-5.88;83.72;98320.09;107447;1273;53786;-74
2022/03/01 03:55:55;;;;;;;22.80;12.40;;;;;;;-5.87;83.98;98315.73;107522;1274;40136;-74
2022/03/01 03:58:25;;;;;;;26.90;12.20;;;;;;;-5.87;84.36;98318.09;107489;1274;34553;-74
2022/03/01 04:00:57;;;;;;;20.60;12.90;;;;;;;-5.86;84.75;98317.39;107465;1274;46861;-74
2022/03/01 04:03:28;;;;;;;19.40;11.20;;;;;;;-5.88;84.39;98312.73;107490;1273;44868;-73
2022/03/01 04:05:59;;;;;;;23.70;14.90;;;;;;;-5.96;84.07;98313.95;107404;1274;44391;-73
2022/03/01 04:08:30;;;;;;;29.30;17.10;;;;;;;-6.03;84.42;98308.96;107456;1274;42761;-74
2022/03/01 04:11:00;;;;;;;23.90;13.90;;;;;;;-6.05;84.54;98305.43;107458;1274;49935;-73
2022/03/01 04:13:32;;;;;;;22.20;14.10;;;;;;;-6.12;84.70;98300.00;107478;1274;39757;-76
2022/03/01 04:16:03;;;;;;;22.60;12.70;;;;;;;-6.22;84.74;98300.52;107412;1274;46954;-74
2022/03/01 04:18:34;;;;;;;22.00;12.80;;;;;;;-6.25;85.13;98300.91;107466;1273;43497;-74
2022/03/01 04:21:05;;;;;;;23.10;15.10;;;;;;;-6.19;85.59;98297.80;107565;1274;38997;-73
2022/03/01 04:23:36;;;;;;;18.20;10.90;;;;;;;-6.08;86.19;98294.77;107463;1274;36922;-74
2022/03/01 04:26:08;;;;;;;21.20;13.50;;;;;;;-5.99;86.00;98296.94;107497;1273;44108;-74
2022/03/01 04:28:39;;;;;;;23.10;15.70;;;;;;;-5.94;86.31;98293.30;107624;1273;33201;-73
2022/03/01 04:31:11;;;;;;;27.00;16.90;;;;;;;-5.90;86.23;98290.70;107335;1273;143916;-73
2022/03/01 04:33:42;;;;;;;24.00;12.70;;;;;;;-5.87;86.32;98289.92;107384;1274;49134;-73
2022/03/01 04:36:13;;;;;;;17.00;10.20;;;;;;;-5.86;86.54;98286.88;107460;1273;43221;-75
2022/03/01 04:38:44;;;;;;;20.10;12.30;;;;;;;-5.89;86.51;98285.42;107507;1273;31950;-74
2022/03/01 04:41:15;;;;;;;28.00;16.30;;;;;;;-5.88;86.58;98278.08;107467;1274;44347;-74
2022/03/01 04:43:46;;;;;;;25.20;15.20;;;;;;;-5.81;87.00;98276.73;107550;1274;36368;-74
2022/03/01 04:46:18;;;;;;;23.50;15.50;;;;;;;-5.75;87.13;98278.30;107469;1273;48881;-74
2022/03/01 04:48:49;;;;;;;24.90;15.70;;;;;;;-5.71;86.85;98274.72;107525;1273;34346;-74
2022/03/01 04:51:22;;;;;;;23.10;14.20;;;;;;;-5.73;86.67;98273.47;107522;1273;36882;-74
2022/03/01 04:53:53;;;;;;;22.30;14.00;;;;;;;-5.90;85.76;98269.85;107527;1273;44937;-74
2022/03/01 04:56:24;;;;;;;22.20;13.50;;;;;;;-5.99;85.74;98276.80;107482;1274;37906;-74
2022/03/01 04:58:55;;;;;;;21.90;12.80;;;;;;;-6.02;85.48;98272.78;107522;1273;37470;-74
2022/03/01 05:01:27;;;;;;;20.60;12.10;;;;;;;-6.06;85.32;98271.59;107492;1273;32241;-74
2022/03/01 05:03:57;;;;;;;19.30;10.80;;;;;;;-6.09;85.08;98269.98;107429;1274;45842;-74
2022/03/01 05:06:28;;;;;;;17.30;10.50;;;;;;;-6.18;84.74;98268.64;107460;1273;47066;-74
2022/03/01 05:08:59;;;;;;;18.40;11.30;;;;;;;-6.22;84.52;98267.60;107460;1273;32196;-74
2022/03/01 05:11:30;;;;;;;20.00;11.00;;;;;;;-6.27;84.24;98265.86;107482;1273;37471;-74
2022/03/01 05:14:02;;;;;;;15.10;10.10;;;;;;;-6.32;84.42;98267.67;107461;1273;36184;-74
2022/03/01 05:16:33;;;;;;;17.10;10.30;;;;;;;-6.38;84.22;98261.39;107442;1273;33625;-74
2022/03/01 05:19:04;;;;;;;18.00;10.10;;;;;;;-6.42;84.18;98260.11;107475;1273;32932;-74
2022/03/01 05:21:36;;;;;;;19.50;10.50;;;;;;;-6.45;84.23;98263.42;107509;1273;34776;-74
2022/03/01 05:24:07;;;;;;;19.40;10.80;;;;;;;-6.40;84.53;98263.21;107479;1273;42833;-73
2022/03/01 05:26:38;;;;;;;20.00;11.30;;;;;;;-6.38;84.93;98265.25;107472;1273;35725;-74
2022/03/01 05:29:10;;;;;;;18.80;11.30;;;;;;;-6.38;84.70;98264.88;107472;1271;47339;-73
2022/03/01 05:31:41;;;;;;;21.60;11.70;;;;;;;-6.33;84.85;98263.40;107430;1273;39428;-74
2022/03/01 05:34:12;;;;;;;18.30;12.20;;;;;;;-6.29;84.88;98265.48;107438;1273;36021;-74
2022/03/01 05:36:43;;;;;;;20.80;11.50;;;;;;;-6.22;84.91;98271.77;107449;1273;32204;-74
2022/03/01 05:39:14;;;;;;;23.40;12.20;;;;;;;-6.14;85.04;98275.05;107455;1270;41282;-74
2022/03/01 05:41:45;;;;;;;23.60;12.50;;;;;;;-6.08;85.08;98273.63;107473;1273;49697;-74
2022/03/01 05:44:16;;;;;;;22.70;13.30;;;;;;;-5.89;84.86;98277.32;107505;1272;38373;-74
2022/03/01 05:46:47;;;;;;;21.90;13.00;;;;;;;-5.58;85.04;98279.73;107481;1273;37780;-73
2022/03/01 05:49:18;;;;;;;22.80;13.30;;;;;;;-5.27;84.59;98282.09;107545;1273;31013;-74
2022/03/01 05:51:49;;;;;;;24.10;14.30;;;;;;;-4.87;84.36;98282.79;107501;1273;46309;-73
2022/03/01 05:54:20;;;;;;;20.20;13.20;;;;;;;-4.40;84.10;98284.80;107436;1273;148719;-73
2022/03/01 05:56:51;;;;;;;20.00;12.10;;;;;;;-3.87;83.92;98286.39;107537;1273;32310;-74
2022/03/01 05:59:23;;;;;;;20.00;12.20;;;;;;;-3.30;83.57;98290.27;107541;1273;32773;-73
2022/03/01 06:01:54;;;;;;;19.60;12.30;;;;;;;-2.65;83.38;98291.13;107473;1273;63409;-74
2022/03/01 06:04:25;;;;;;;19.00;12.20;;;;;;;-2.06;82.77;98289.77;107522;1273;44795;-74
2022/03/01 06:06:56;;;;;;;19.40;13.50;;;;;;;-1.53;81.91;98290.66;107394;1274;34454;-74
2022/03/01 06:09:27;;;;;;;17.70;12.30;;;;;;;-0.96;81.30;98292.41;107502;1274;36656;-75
2022/03/01 06:11:58;;;;;;;22.00;15.20;;;;;;;-0.37;80.51;98293.36;107473;1273;37980;-74
2022/03/01 06:14:29;;;;;;;18.30;13.30;;;;;;;0.22;79.97;98295.86;107444;1274;38729;-74
2022/03/01 06:17:00;;;;;;;20.50;14.00;;;;;;;0.61;78.21;98297.92;107419;1273;34839;-74
2022/03/01 06:19:31;;;;;;;23.70;14.60;;;;;;;0.75;76.77;98299.10;107418;1273;34331;-74
2022/03/01 06:22:04;;;;;;;22.10;15.70;;;;;;;0.60;75.82;98294.91;107452;1274;35381;-74
2022/03/01 06:24:35;;;;;;;21.40;15.30;;;;;;;0.64;75.48;98295.30;107499;1274;29987;-74
2022/03/01 06:27:07;;;;;;;25.00;16.00;;;;;;;1.09;75.63;98297.08;107450;1273;45291;-74
2022/03/01 06:29:39;;;;;;;23.90;16.30;;;;;;;1.29;74.77;98295.42;107448;1273;36505;-74
2022/03/01 06:32:10;;;;;;;28.30;18.50;;;;;;;1.38;73.84;98295.76;107468;1273;33861;-74
2022/03/01 06:34:41;;;;;;;25.00;17.70;;;;;;;1.54;73.90;98295.65;107460;1272;41807;-74
2022/03/01 06:37:13;;;;;;;23.40;18.50;;;;;;;1.64;72.92;98293.45;107482;1273;39783;-74
2022/03/01 06:39:47;;;;;;;22.80;17.20;;;;;;;1.93;73.26;98291.43;107562;1273;32233;-74
2022/03/01 06:42:19;;;;;;;23.80;17.10;;;;;;;2.44;72.76;98294.41;107466;1273;39522;-74
2022/03/01 06:44:49;;;;;;;22.60;17.20;;;;;;;3.14;73.31;98293.98;107497;1273;46310;-74
2022/03/01 06:47:20;;;;;;;25.70;18.40;;;;;;;4.11;73.23;98289.27;107533;1273;30030;-74
2022/03/01 06:49:52;;;;;;;24.20;18.50;;;;;;;5.03;72.68;98288.84;107534;1271;52190;-74
2022/03/01 06:52:23;;;;;;;24.20;18.30;;;;;;;5.82;71.91;98288.05;107405;1273;67255;-74
2022/03/01 06:54:54;;;;;;;22.20;18.00;;;;;;;6.49;70.27;98286.27;107453;1273;43026;-75
2022/03/01 06:57:25;;;;;;;24.50;18.50;;;;;;;7.08;69.03;98284.23;107477;1273;41056;-75
2022/03/01 06:59:56;;;;;;;27.30;20.90;;;;;;;7.56;67.49;98287.05;107438;1273;38951;-75
2022/03/01 07:02:27;;;;;;;29.90;21.70;;;;;;;8.06;66.97;98279.52;107416;1273;43655;-75
2022/03/01 07:04:59;;;;;;;30.10;23.30;;;;;;;8.35;65.98;98278.83;107527;1273;38122;-75
2022/03/01 07:07:30;;;;;;;30.30;23.90;;;;;;;8.44;64.94;98279.94;107489;1273;36535;-75
2022/03/01 07:10:00;;;;;;;30.60;24.00;;;;;;;8.80;64.51;98282.91;107422;1273;42808;-75
2022/03/01 07:12:31;;;;;;;29.00;24.30;;;;;;;8.97;63.51;98286.92;107500;1273;46350;-75
2022/03/01 07:15:03;;;;;;;32.60;26.10;;;;;;;9.30;62.63;98288.24;107508;1273;31158;-75
2022/03/01 07:17:34;;;;;;;29.90;24.80;;;;;;;9.62;61.44;98285.83;107390;1273;43315;-75
2022/03/01 07:20:08;;;;;;;30.70;26.10;;;;;;;9.84;59.88;98288.02;107486;1273;47162;-75
2022/03/01 07:22:40;;;;;;;33.70;26.50;;;;;;;10.07;59.72;98285.22;107553;1273;30712;-75
2022/03/01 07:25:12;;;;;;;35.70;26.50;;;;;;;10.71;59.06;98281.23;107438;1273;41438;-75
2022/03/01 07:27:51;;;;;;;32.50;26.40;;;;;;;11.30;58.79;98281.55;107522;1273;32447;-75
2022/03/01 07:30:25;;;;;;;31.80;28.20;;;;;;;11.20;57.03;98283.58;107556;1273;49435;-75
2022/03/01 07:32:58;;;;;;;33.50;28.10;;;;;;;11.66;57.27;98280.04;107604;1273;34513;-75
2022/03/01 07:35:30;;;;;;;30.00;26.40;;;;;;;11.92;55.98;98279.63;107582;1273;43582;-75
2022/03/01 07:38:01;;;;;;;30.80;27.50;;;;;;;12.31;54.80;98275.06;107512;1273;34612;-75
2022/03/01 07:40:32;;;;;;;29.40;25.80;;;;;;;12.82;54.41;98275.98;107460;1273;31060;-75
2022/03/01 07:43:03;;;;;;;31.70;27.70;;;;;;;13.38;53.36;98275.77;107499;1270;33540;-75
2022/03/01 07:45:34;;;;;;;31.40;26.50;;;;;;;13.82;52.37;98274.57;107497;1273;40458;-75
2022/03/01 07:48:06;;;;;;;32.50;28.30;;;;;;;13.87;51.48;98274.42;107503;1273;33581;-75
2022/03/01 07:50:37;;;;;;;32.30;28.10;;;;;;;13.29;50.07;98283.09;107488;1272;41359;-75
2022/03/01 07:53:09;;;;;;;33.90;28.20;;;;;;;13.06;50.19;98277.97;107462;1273;41526;-75
2022/03/01 07:55:40;;;;;;;32.60;29.10;;;;;;;13.48;50.16;98278.92;107512;1271;29188;-75
2022/03/01 07:58:11;;;;;;;35.80;30.90;;;;;;;13.98;49.14;98275.50;107507;1273;31181;-74
2022/03/01 08:00:42;;;;;;;33.90;30.20;;;;;;;13.70;47.77;98274.65;107481;1273;39603;-74
2022/03/01 08:03:13;;;;;;;33.70;30.10;;;;;;;14.04;48.03;98273.14;107468;1273;42809;-74
2022/03/01 08:05:45;;;;;;;34.80;31.00;;;;;;;13.60;45.54;98274.73;107508;1273;52699;-74
2022/03/01 08:08:16;;;;;;;34.00;30.20;;;;;;;13.01;45.78;98267.76;107510;1272;60517;-74
2022/03/01 08:10:50;;;;;;;31.30;28.10;;;;;;;12.74;45.32;98261.77;107549;1273;40359;-74
2022/03/01 08:13:21;;;;;;;31.80;27.90;;;;;;;12.57;45.73;98261.99;107518;1273;37715;-74
2022/03/01 08:15:53;;;;;;;32.30;28.70;;;;;;;12.60;44.28;98258.79;107511;1273;39959;-74
2022/03/01 08:18:24;;;;;;;33.70;30.10;;;;;;;12.27;43.70;98261.92;107393;1274;39239;-75
2022/03/01 08:20:57;;;;;;;35.50;29.90;;;;;;;11.60;43.03;98258.16;107492;1273;40838;-74
2022/03/01 08:23:28;;;;;;;27.10;23.20;;;;;;;11.42;44.03;98253.95;107508;1271;38128;-74
2022/03/01 08:26:00;;;;;;;25.70;22.50;;;;;;;11.96;44.72;98247.35;107496;1273;36335;-74
2022/03/01 08:28:31;;;;;;;23.20;20.10;;;;;;;12.50;43.01;98245.60;107508;1272;38209;-73
2022/03/01 08:31:02;;;;;;;20.10;16.60;;;;;;;12.51;43.32;98242.63;107491;1273;30402;-74
2022/03/01 08:33:33;;;;;;;19.90;17.00;;;;;;;13.19;42.85;98243.47;107508;1273;32897;-74
2022/03/01 08:36:06;;;;;;;17.50;13.30;;;;;;;13.91;43.23;98238.92;107451;1273;40382;-74
2022/03/01 08:38:38;;;;;;;16.50;13.70;;;;;;;13.86;39.69;98237.08;107561;1271;43802;-74
2022/03/01 08:41:09;;;;;;;14.90;10.80;;;;;;;13.35;40.23;98239.09;107462;1273;32865;-73
2022/03/01 08:43:40;;;;;;;22.40;16.60;;;;;;;12.69;39.51;98233.17;107463;1273;40492;-74
2022/03/01 08:46:14;;;;;;;12.50;9.20;;;;;;;13.12;41.15;98236.60;107508;1272;31859;-74
2022/03/01 08:48:45;;;;;;;15.30;11.90;;;;;;;13.50;40.48;98227.02;107503;1272;39369;-73
2022/03/01 08:51:16;;;;;;;18.70;12.50;;;;;;;13.65;40.50;98230.23;107498;1272;29607;-73
2022/03/01 08:53:48;;;;;;;19.60;13.90;;;;;;;13.66;40.58;98227.34;107546;1271;33710;-73
2022/03/01 08:56:20;;;;;;;16.10;12.10;;;;;;;13.24;39.20;98226.52;107561;1273;31675;-73
2022/03/01 08:58:51;;;;;;;10.20;7.50;;;;;;;12.66;39.26;98226.34;107639;1273;35463;-73
2022/03/01 09:01:22;;;;;;;15.90;9.90;;;;;;;11.35;36.06;98224.55;107561;1272;39714;-73
2022/03/01 09:03:53;;;;;;;13.30;8.50;;;;;;;10.18;38.75;98226.88;107527;1272;38734;-73
2022/03/01 09:06:24;;;;;;;15.50;10.00;;;;;;;9.36;37.55;98232.02;107472;1272;43653;-74
2022/03/01 09:08:55;;;;;;;17.70;12.40;;;;;;;8.40;39.38;98233.05;107485;1273;37923;-74
2022/03/01 09:11:26;;;;;;;18.60;13.10;;;;;;;8.31;40.67;98233.00;107493;1271;33024;-73
2022/03/01 09:13:58;;;;;;;15.90;11.30;;;;;;;7.71;40.67;98224.95;107527;1271;38405;-73
2022/03/01 09:16:29;;;;;;;14.60;10.80;;;;;;;6.90;41.53;98224.74;107470;1273;38564;-73
2022/03/01 09:19:00;;;;;;;13.00;8.50;;;;;;;6.09;43.02;98218.45;107452;1273;36001;-74
2022/03/01 09:21:30;;;;;;;12.10;7.30;;;;;;;6.03;44.12;98220.60;107492;1272;30267;-73
2022/03/01 09:24:01;;;;;;;10.60;6.30;;;;;;;6.04;44.46;98223.79;107495;1272;33193;-73
2022/03/01 09:26:32;;;;;;;7.50;5.00;;;;;;;5.99;44.38;98221.31;107508;1273;30964;-73
2022/03/01 09:29:04;;;;;;;5.30;3.00;;;;;;;5.80;44.41;98223.83;107522;1272;36247;-73
2022/03/01 09:31:35;;;;;;;8.40;4.40;;;;;;;5.63;44.46;98223.35;107518;1272;29515;-73
2022/03/01 09:34:06;;;;;;;10.80;6.30;;;;;;;5.67;45.33;98219.55;107521;1273;27259;-73
2022/03/01 09:36:37;;;;;;;12.30;7.60;;;;;;;5.78;45.66;98219.21;107429;1273;108001;-73
2022/03/01 09:39:08;;;;;;;16.40;9.50;;;;;;;5.65;45.00;98218.16;107510;1272;33147;-73
2022/03/01 09:41:40;;;;;;;13.70;8.60;;;;;;;5.48;45.54;98217.87;107444;1273;39324;-73
2022/03/01 09:44:13;;;;;;;15.00;9.70;;;;;;;5.60;45.45;98206.80;107533;1271;32317;-73
2022/03/01 09:46:44;;;;;;;17.40;10.90;;;;;;;5.22;45.08;98205.06;107484;1273;32927;-73
2022/03/01 09:49:16;;;;;;;15.20;10.30;;;;;;;4.93;45.73;98201.45;107436;1273;41345;-73
2022/03/01 09:51:48;;;;;;;15.80;11.30;;;;;;;4.27;46.25;98197.78;107475;1273;42145;-73
2022/03/01 09:54:19;;;;;;;11.40;7.00;;;;;;;4.19;47.33;98191.83;107479;1273;39763;-73
2022/03/01 09:56:50;;;;;;;8.90;5.40;;;;;;;4.51;48.01;98198.55;107524;1273;40184;-73
2022/03/01 09:59:21;;;;;;;7.30;5.00;;;;;;;4.90;47.48;98189.89;107557;1273;41401;-73
2022/03/01 10:01:53;;;;;;;8.70;5.50;;;;;;;5.08;46.88;98191.34;107513;1273;40809;-73
2022/03/01 10:04:25;;;;;;;11.00;6.60;;;;;;;5.15;46.98;98190.10;107493;1273;34160;-74
2022/03/01 10:06:56;;;;;;;10.30;6.40;;;;;;;5.28;46.94;98190.38;107534;1273;31340;-73
2022/03/01 10:09:28;;;;;;;11.60;6.10;;;;;;;5.45;46.86;98183.73;107485;1274;41692;-74
2022/03/01 10:12:06;;;;;;;10.60;6.80;;;;;;;5.24;45.92;98187.59;107471;1273;39726;-74
2022/03/01 10:14:39;;;;;;;10.50;6.90;;;;;;;4.99;46.13;98182.00;107468;1273;38894;-73
2022/03/01 10:17:16;;;;;;;18.40;9.60;;;;;;;4.77;45.87;98180.75;107499;1273;28384;-73
2022/03/01 10:19:47;;;;;;;10.40;7.00;;;;;;;4.84;46.05;98178.05;107514;1273;38953;-73
2022/03/01 10:22:21;;;;;;;13.70;9.50;;;;;;;5.00;45.43;98174.44;107498;1273;30706;-73
2022/03/01 10:24:53;;;;;;;16.70;10.40;;;;;;;4.76;45.59;98179.71;107591;1273;28664;-74
2022/03/01 10:27:30;;;;;;;14.70;9.50;;;;;;;4.64;46.26;98175.25;107498;1273;34005;-73
2022/03/01 10:30:02;;;;;;;17.00;10.50;;;;;;;4.61;46.20;98167.70;107508;1273;34009;-74
2022/03/01 10:32:33;;;;;;;17.40;10.20;;;;;;;4.58;45.84;98169.98;107493;1273;42239;-74
2022/03/01 10:35:07;;;;;;;16.90;9.40;;;;;;;4.26;45.62;98169.96;107490;1273;32248;-74
2022/03/01 10:37:40;;;;;;;16.10;10.00;;;;;;;3.82;45.48;98165.68;107455;1273;36518;-74
2022/03/01 10:40:19;;;;;;;15.10;10.10;;;;;;;3.70;47.20;98162.20;107507;1273;38804;-74
2022/03/01 10:43:01;;;;;;;18.50;11.50;;;;;;;4.15;47.89;98161.59;107556;1273;45430;-73
2022/03/01 10:45:38;;;;;;;17.30;11.40;;;;;;;4.47;48.01;98157.95;107467;1273;42685;-74
2022/03/01 10:48:11;;;;;;;19.80;12.10;;;;;;;4.80;47.93;98149.42;107543;1273;43211;-74
2022/03/01 10:50:43;;;;;;;17.60;12.50;;;;;;;5.01;48.16;98149.85;107524;1273;28206;-74
2022/03/01 10:53:13;;;;;;;17.90;11.60;;;;;;;5.20;47.91;98141.69;107519;1273;36974;-74
2022/03/01 10:55:44;;;;;;;19.10;12.60;;;;;;;5.15;47.31;98136.84;107428;1273;50729;-74
2022/03/01 10:58:16;;;;;;;17.20;12.10;;;;;;;5.03;47.27;98136.34;107452;1274;66452;-75
2022/03/01 11:00:47;;;;;;;19.20;12.30;;;;;;;4.94;46.96;98131.59;107514;1273;48484;-74
2022/03/01 11:03:21;;;;;;;16.80;11.80;;;;;;;4.90;47.40;98130.73;107497;1273;36058;-74
2022/03/01 11:05:56;;;;;;;20.30;12.50;;;;;;;5.05;48.06;98123.40;107461;1273;42861;-74
2022/03/01 11:08:35;;;;;;;20.50;12.90;;;;;;;5.14;47.58;98121.44;107440;1273;49415;-74
2022/03/01 11:11:10;;;;;;;19.40;11.20;;;;;;;5.15;47.45;98121.96;107501;1273;31389;-74
2022/03/01 11:13:44;;;;;;;17.70;10.90;;;;;;;5.14;47.46;98116.83;107501;1273;37858;-74
2022/03/01 11:16:48;;;;;;;17.20;11.20;;;;;;;5.01;46.84;98113.38;107485;1273;30124;-74
2022/03/01 11:19:40;;;;;;;20.90;11.50;;;;;;;4.74;47.44;98108.77;107393;1273;44393;-74
2022/03/01 11:22:26;;;;;;;21.40;11.90;;;;;;;4.91;47.81;98103.82;107444;1273;43423;-74
2022/03/01 11:24:57;;;;;;;19.80;12.40;;;;;;;5.03;47.98;98098.66;107518;1273;41140;-75
2022/03/01 11:27:29;;;;;;;18.00;11.90;;;;;;;5.17;48.04;98093.20;107475;1273;37303;-75
2022/03/01 11:30:12;;;;;;;18.90;12.40;;;;;;;5.24;47.90;98090.77;107558;1273;37734;-75
2022/03/01 11:32:44;;;;;;;16.90;11.70;;;;;;;5.29;47.56;98083.57;107492;1273;32917;-74
2022/03/01 11:35:22;;;;;;;20.30;13.80;;;;;;;5.38;48.14;98081.40;107466;1273;42133;-75